sensor_id;sensor_type;location;lat;lon;timestamp;P1;durP1;ratioP1;P2;durP2;ratioP2
28587;SDS011;15787;49.662;10.162;2023-07-30T00:01:48;6.57;;;2.22;;
28587;SDS011;15787;49.662;10.162;2023-07-30T00:04:21;5.43;;;2.33;;
28587;SDS011;15787;49.662;10.162;2023-07-30T00:06:55;4.70;;;2.30;;
28587;SDS011;15787;49.662;10.162;2023-07-30T00:09:27;3.92;;;1.67;;
28587;SDS011;15787;49.662;10.162;2023-07-30T00:12:00;5.35;;;1.90;;
28587;SDS011;15787;49.662;10.162;2023-07-30T00:14:35;4.85;;;2.10;;
28587;SDS011;15787;49.662;10.162;2023-07-30T00:17:08;4.70;;;1.98;;
28587;SDS011;15787;49.662;10.162;2023-07-30T00:19:41;4.53;;;1.80;;
28587;SDS011;15787;49.662;10.162;2023-07-30T00:22:14;3.75;;;1.88;;
28587;SDS011;15787;49.662;10.162;2023-07-30T00:24:47;3.47;;;2.08;;
28587;SDS011;15787;49.662;10.162;2023-07-30T00:27:20;4.60;;;2.08;;
28587;SDS011;15787;49.662;10.162;2023-07-30T00:29:55;3.40;;;2.10;;
28587;SDS011;15787;49.662;10.162;2023-07-30T00:32:28;3.88;;;2.15;;
28587;SDS011;15787;49.662;10.162;2023-07-30T00:35:01;3.88;;;2.33;;
28587;SDS011;15787;49.662;10.162;2023-07-30T00:37:35;8.73;;;2.17;;
28587;SDS011;15787;49.662;10.162;2023-07-30T00:40:09;8.65;;;2.42;;
28587;SDS011;15787;49.662;10.162;2023-07-30T00:42:42;4.78;;;1.73;;
28587;SDS011;15787;49.662;10.162;2023-07-30T00:45:18;5.78;;;1.35;;
28587;SDS011;15787;49.662;10.162;2023-07-30T00:47:51;6.55;;;1.77;;
28587;SDS011;15787;49.662;10.162;2023-07-30T00:50:24;5.15;;;1.92;;
28587;SDS011;15787;49.662;10.162;2023-07-30T00:52:57;3.85;;;2.30;;
28587;SDS011;15787;49.662;10.162;2023-07-30T00:55:31;4.65;;;2.20;;
28587;SDS011;15787;49.662;10.162;2023-07-30T00:58:04;5.82;;;2.20;;
28587;SDS011;15787;49.662;10.162;2023-07-30T01:00:38;6.32;;;2.38;;
28587;SDS011;15787;49.662;10.162;2023-07-30T01:03:12;5.45;;;1.88;;
28587;SDS011;15787;49.662;10.162;2023-07-30T01:05:45;9.07;;;2.22;;
28587;SDS011;15787;49.662;10.162;2023-07-30T01:08:18;7.32;;;2.75;;
28587;SDS011;15787;49.662;10.162;2023-07-30T01:10:52;9.35;;;2.00;;
28587;SDS011;15787;49.662;10.162;2023-07-30T01:13:26;3.58;;;2.30;;
28587;SDS011;15787;49.662;10.162;2023-07-30T01:16:02;6.40;;;2.78;;
28587;SDS011;15787;49.662;10.162;2023-07-30T01:18:38;4.00;;;2.33;;
28587;SDS011;15787;49.662;10.162;2023-07-30T01:21:12;6.50;;;2.50;;
28587;SDS011;15787;49.662;10.162;2023-07-30T01:23:46;3.75;;;1.90;;
28587;SDS011;15787;49.662;10.162;2023-07-30T01:26:19;4.75;;;2.35;;
28587;SDS011;15787;49.662;10.162;2023-07-30T01:28:58;7.57;;;2.33;;
28587;SDS011;15787;49.662;10.162;2023-07-30T01:31:34;6.65;;;3.10;;
28587;SDS011;15787;49.662;10.162;2023-07-30T01:34:09;5.35;;;2.75;;
28587;SDS011;15787;49.662;10.162;2023-07-30T01:36:45;5.88;;;2.15;;
28587;SDS011;15787;49.662;10.162;2023-07-30T01:39:20;2.53;;;2.05;;
28587;SDS011;15787;49.662;10.162;2023-07-30T01:41:54;5.85;;;2.67;;
28587;SDS011;15787;49.662;10.162;2023-07-30T01:44:27;3.28;;;2.03;;
28587;SDS011;15787;49.662;10.162;2023-07-30T01:47:01;4.25;;;2.10;;
28587;SDS011;15787;49.662;10.162;2023-07-30T01:49:34;4.25;;;1.90;;
28587;SDS011;15787;49.662;10.162;2023-07-30T01:52:09;6.13;;;2.03;;
28587;SDS011;15787;49.662;10.162;2023-07-30T01:54:43;4.03;;;1.67;;
28587;SDS011;15787;49.662;10.162;2023-07-30T01:57:28;3.78;;;2.00;;
28587;SDS011;15787;49.662;10.162;2023-07-30T02:00:08;4.30;;;2.03;;
28587;SDS011;15787;49.662;10.162;2023-07-30T02:05:26;3.63;;;2.50;;
28587;SDS011;15787;49.662;10.162;2023-07-30T02:08:08;3.90;;;2.25;;
28587;SDS011;15787;49.662;10.162;2023-07-30T02:10:58;5.15;;;2.70;;
28587;SDS011;15787;49.662;10.162;2023-07-30T02:13:33;7.05;;;2.80;;
28587;SDS011;15787;49.662;10.162;2023-07-30T02:16:06;5.18;;;2.85;;
28587;SDS011;15787;49.662;10.162;2023-07-30T02:18:39;5.28;;;2.47;;
28587;SDS011;15787;49.662;10.162;2023-07-30T02:21:13;5.85;;;3.35;;
28587;SDS011;15787;49.662;10.162;2023-07-30T02:23:51;5.35;;;2.63;;
28587;SDS011;15787;49.662;10.162;2023-07-30T02:26:46;3.85;;;2.70;;
28587;SDS011;15787;49.662;10.162;2023-07-30T02:29:21;3.22;;;2.42;;
28587;SDS011;15787;49.662;10.162;2023-07-30T02:32:06;5.30;;;2.97;;
28587;SDS011;15787;49.662;10.162;2023-07-30T02:34:47;4.88;;;3.00;;
28587;SDS011;15787;49.662;10.162;2023-07-30T02:37:34;6.10;;;2.83;;
28587;SDS011;15787;49.662;10.162;2023-07-30T02:40:24;4.15;;;3.28;;
28587;SDS011;15787;49.662;10.162;2023-07-30T02:43:04;4.97;;;2.60;;
28587;SDS011;15787;49.662;10.162;2023-07-30T02:48:44;5.68;;;3.03;;
28587;SDS011;15787;49.662;10.162;2023-07-30T02:51:31;6.72;;;2.90;;
28587;SDS011;15787;49.662;10.162;2023-07-30T02:54:17;4.18;;;3.15;;
28587;SDS011;15787;49.662;10.162;2023-07-30T02:57:01;4.00;;;2.90;;
28587;SDS011;15787;49.662;10.162;2023-07-30T02:59:47;8.07;;;3.00;;
28587;SDS011;15787;49.662;10.162;2023-07-30T03:02:26;4.97;;;3.33;;
28587;SDS011;15787;49.662;10.162;2023-07-30T03:05:12;4.70;;;2.67;;
28587;SDS011;15787;49.662;10.162;2023-07-30T03:07:57;4.18;;;3.10;;
28587;SDS011;15787;49.662;10.162;2023-07-30T03:10:41;4.43;;;3.00;;
28587;SDS011;15787;49.662;10.162;2023-07-30T03:13:26;4.50;;;2.60;;
28587;SDS011;15787;49.662;10.162;2023-07-30T03:16:11;8.15;;;2.97;;
28587;SDS011;15787;49.662;10.162;2023-07-30T03:18:54;4.35;;;2.88;;
28587;SDS011;15787;49.662;10.162;2023-07-30T03:21:48;5.97;;;2.78;;
28587;SDS011;15787;49.662;10.162;2023-07-30T03:24:39;3.60;;;2.30;;
28587;SDS011;15787;49.662;10.162;2023-07-30T03:27:17;7.30;;;2.42;;
28587;SDS011;15787;49.662;10.162;2023-07-30T03:29:57;4.60;;;2.53;;
28587;SDS011;15787;49.662;10.162;2023-07-30T03:32:31;7.63;;;2.50;;
28587;SDS011;15787;49.662;10.162;2023-07-30T03:35:07;3.83;;;2.40;;
28587;SDS011;15787;49.662;10.162;2023-07-30T03:37:41;9.30;;;3.38;;
28587;SDS011;15787;49.662;10.162;2023-07-30T03:40:22;5.20;;;2.10;;
28587;SDS011;15787;49.662;10.162;2023-07-30T03:42:56;6.40;;;2.95;;
28587;SDS011;15787;49.662;10.162;2023-07-30T03:45:35;3.20;;;2.08;;
28587;SDS011;15787;49.662;10.162;2023-07-30T03:48:14;4.95;;;2.22;;
28587;SDS011;15787;49.662;10.162;2023-07-30T03:50:48;4.72;;;1.98;;
28587;SDS011;15787;49.662;10.162;2023-07-30T03:53:21;4.75;;;2.20;;
28587;SDS011;15787;49.662;10.162;2023-07-30T03:56:03;5.53;;;2.22;;
28587;SDS011;15787;49.662;10.162;2023-07-30T03:58:52;5.75;;;2.47;;
28587;SDS011;15787;49.662;10.162;2023-07-30T04:01:27;6.15;;;2.50;;
28587;SDS011;15787;49.662;10.162;2023-07-30T04:04:02;3.70;;;2.20;;
28587;SDS011;15787;49.662;10.162;2023-07-30T04:06:36;4.18;;;2.35;;
28587;SDS011;15787;49.662;10.162;2023-07-30T04:09:09;4.35;;;2.60;;
28587;SDS011;15787;49.662;10.162;2023-07-30T04:11:42;3.17;;;1.92;;
28587;SDS011;15787;49.662;10.162;2023-07-30T04:14:21;4.55;;;1.98;;
28587;SDS011;15787;49.662;10.162;2023-07-30T04:17:08;5.70;;;2.25;;
28587;SDS011;15787;49.662;10.162;2023-07-30T04:19:44;4.10;;;2.47;;
28587;SDS011;15787;49.662;10.162;2023-07-30T04:22:24;2.85;;;2.03;;
28587;SDS011;15787;49.662;10.162;2023-07-30T04:25:04;2.75;;;2.10;;
28587;SDS011;15787;49.662;10.162;2023-07-30T04:27:49;4.18;;;2.50;;
28587;SDS011;15787;49.662;10.162;2023-07-30T04:30:47;5.28;;;2.30;;
28587;SDS011;15787;49.662;10.162;2023-07-30T04:36:47;4.25;;;2.25;;
28587;SDS011;15787;49.662;10.162;2023-07-30T04:40:37;8.57;;;2.65;;
28587;SDS011;15787;49.662;10.162;2023-07-30T04:44:39;6.65;;;2.05;;
28587;SDS011;15787;49.662;10.162;2023-07-30T04:48:50;6.22;;;2.38;;
28587;SDS011;15787;49.662;10.162;2023-07-30T04:52:15;3.33;;;1.90;;
28587;SDS011;15787;49.662;10.162;2023-07-30T04:55:07;10.45;;;2.58;;
28587;SDS011;15787;49.662;10.162;2023-07-30T04:57:40;6.05;;;2.40;;
28587;SDS011;15787;49.662;10.162;2023-07-30T05:00:14;5.28;;;2.15;;
28587;SDS011;15787;49.662;10.162;2023-07-30T05:02:50;8.90;;;2.50;;
28587;SDS011;15787;49.662;10.162;2023-07-30T05:05:23;4.20;;;2.45;;
28587;SDS011;15787;49.662;10.162;2023-07-30T05:07:58;3.65;;;2.22;;
28587;SDS011;15787;49.662;10.162;2023-07-30T05:10:31;8.07;;;2.70;;
28587;SDS011;15787;49.662;10.162;2023-07-30T05:13:12;5.63;;;2.63;;
28587;SDS011;15787;49.662;10.162;2023-07-30T05:16:16;4.60;;;2.50;;
28587;SDS011;15787;49.662;10.162;2023-07-30T05:19:21;6.47;;;2.28;;
28587;SDS011;15787;49.662;10.162;2023-07-30T05:23:41;3.40;;;2.50;;
28587;SDS011;15787;49.662;10.162;2023-07-30T05:26:17;3.50;;;2.40;;
28587;SDS011;15787;49.662;10.162;2023-07-30T05:28:51;4.03;;;2.50;;
28587;SDS011;15787;49.662;10.162;2023-07-30T05:31:24;5.60;;;2.50;;
28587;SDS011;15787;49.662;10.162;2023-07-30T05:33:58;7.32;;;2.45;;
28587;SDS011;15787;49.662;10.162;2023-07-30T05:36:31;7.20;;;2.50;;
28587;SDS011;15787;49.662;10.162;2023-07-30T05:39:09;3.10;;;2.42;;
28587;SDS011;15787;49.662;10.162;2023-07-30T05:41:42;6.93;;;2.63;;
28587;SDS011;15787;49.662;10.162;2023-07-30T05:44:18;5.55;;;2.90;;
28587;SDS011;15787;49.662;10.162;2023-07-30T05:46:52;2.92;;;2.20;;
28587;SDS011;15787;49.662;10.162;2023-07-30T05:49:25;3.95;;;2.00;;
28587;SDS011;15787;49.662;10.162;2023-07-30T05:51:58;4.28;;;2.58;;
28587;SDS011;15787;49.662;10.162;2023-07-30T05:54:33;5.68;;;2.65;;
28587;SDS011;15787;49.662;10.162;2023-07-30T05:57:07;6.30;;;2.85;;
28587;SDS011;15787;49.662;10.162;2023-07-30T05:59:40;5.72;;;2.65;;
28587;SDS011;15787;49.662;10.162;2023-07-30T06:02:16;5.47;;;2.83;;
28587;SDS011;15787;49.662;10.162;2023-07-30T06:04:51;3.35;;;2.47;;
28587;SDS011;15787;49.662;10.162;2023-07-30T06:07:25;4.20;;;2.55;;
28587;SDS011;15787;49.662;10.162;2023-07-30T06:10:04;3.95;;;2.50;;
28587;SDS011;15787;49.662;10.162;2023-07-30T06:12:45;6.55;;;2.30;;
28587;SDS011;15787;49.662;10.162;2023-07-30T06:15:19;6.95;;;2.70;;
28587;SDS011;15787;49.662;10.162;2023-07-30T06:18:08;3.22;;;2.10;;
28587;SDS011;15787;49.662;10.162;2023-07-30T06:20:43;6.65;;;2.53;;
28587;SDS011;15787;49.662;10.162;2023-07-30T06:23:17;3.03;;;2.40;;
28587;SDS011;15787;49.662;10.162;2023-07-30T06:25:51;4.05;;;1.95;;
28587;SDS011;15787;49.662;10.162;2023-07-30T06:28:25;5.75;;;2.55;;
28587;SDS011;15787;49.662;10.162;2023-07-30T06:34:16;5.90;;;2.70;;
28587;SDS011;15787;49.662;10.162;2023-07-30T06:36:50;5.68;;;2.10;;
28587;SDS011;15787;49.662;10.162;2023-07-30T06:39:27;2.63;;;1.80;;
28587;SDS011;15787;49.662;10.162;2023-07-30T06:42:01;2.80;;;2.28;;
28587;SDS011;15787;49.662;10.162;2023-07-30T06:44:35;3.90;;;2.40;;
28587;SDS011;15787;49.662;10.162;2023-07-30T06:47:08;2.60;;;2.20;;
28587;SDS011;15787;49.662;10.162;2023-07-30T06:49:41;3.95;;;2.47;;
28587;SDS011;15787;49.662;10.162;2023-07-30T06:52:14;4.68;;;2.20;;
28587;SDS011;15787;49.662;10.162;2023-07-30T06:54:48;3.67;;;2.42;;
28587;SDS011;15787;49.662;10.162;2023-07-30T06:57:22;3.42;;;2.33;;
28587;SDS011;15787;49.662;10.162;2023-07-30T06:59:55;2.95;;;2.17;;
28587;SDS011;15787;49.662;10.162;2023-07-30T07:02:29;2.75;;;2.00;;
28587;SDS011;15787;49.662;10.162;2023-07-30T07:05:02;2.97;;;2.40;;
28587;SDS011;15787;49.662;10.162;2023-07-30T07:07:36;6.35;;;2.10;;
28587;SDS011;15787;49.662;10.162;2023-07-30T07:10:09;4.88;;;2.22;;
28587;SDS011;15787;49.662;10.162;2023-07-30T07:12:44;4.95;;;2.00;;
28587;SDS011;15787;49.662;10.162;2023-07-30T07:15:17;2.50;;;1.52;;
28587;SDS011;15787;49.662;10.162;2023-07-30T07:17:51;4.50;;;2.13;;
28587;SDS011;15787;49.662;10.162;2023-07-30T07:20:24;4.07;;;1.95;;
28587;SDS011;15787;49.662;10.162;2023-07-30T07:22:57;2.30;;;1.35;;
28587;SDS011;15787;49.662;10.162;2023-07-30T07:25:30;5.80;;;1.80;;
28587;SDS011;15787;49.662;10.162;2023-07-30T07:28:05;3.30;;;1.58;;
28587;SDS011;15787;49.662;10.162;2023-07-30T07:30:41;3.30;;;1.50;;
28587;SDS011;15787;49.662;10.162;2023-07-30T07:33:15;2.22;;;1.60;;
28587;SDS011;15787;49.662;10.162;2023-07-30T07:35:49;3.15;;;1.50;;
28587;SDS011;15787;49.662;10.162;2023-07-30T07:38:22;2.85;;;1.58;;
28587;SDS011;15787;49.662;10.162;2023-07-30T07:40:55;5.68;;;1.70;;
28587;SDS011;15787;49.662;10.162;2023-07-30T07:43:29;1.88;;;1.60;;
28587;SDS011;15787;49.662;10.162;2023-07-30T07:46:02;3.10;;;1.52;;
28587;SDS011;15787;49.662;10.162;2023-07-30T07:48:35;3.75;;;1.85;;
28587;SDS011;15787;49.662;10.162;2023-07-30T07:51:08;2.83;;;1.60;;
28587;SDS011;15787;49.662;10.162;2023-07-30T07:53:42;4.65;;;1.70;;
28587;SDS011;15787;49.662;10.162;2023-07-30T07:56:14;6.20;;;1.85;;
28587;SDS011;15787;49.662;10.162;2023-07-30T07:58:49;2.67;;;2.00;;
28587;SDS011;15787;49.662;10.162;2023-07-30T08:01:22;2.22;;;1.60;;
28587;SDS011;15787;49.662;10.162;2023-07-30T08:03:55;2.45;;;1.55;;
28587;SDS011;15787;49.662;10.162;2023-07-30T08:06:28;2.58;;;1.63;;
28587;SDS011;15787;49.662;10.162;2023-07-30T08:09:01;3.33;;;1.80;;
28587;SDS011;15787;49.662;10.162;2023-07-30T08:11:35;5.53;;;1.80;;
28587;SDS011;15787;49.662;10.162;2023-07-30T08:14:10;3.05;;;1.73;;
28587;SDS011;15787;49.662;10.162;2023-07-30T08:16:43;4.75;;;1.30;;
28587;SDS011;15787;49.662;10.162;2023-07-30T08:19:16;2.00;;;1.30;;
28587;SDS011;15787;49.662;10.162;2023-07-30T08:21:49;2.15;;;1.60;;
28587;SDS011;15787;49.662;10.162;2023-07-30T08:24:22;3.25;;;1.67;;
28587;SDS011;15787;49.662;10.162;2023-07-30T08:26:55;3.00;;;1.77;;
28587;SDS011;15787;49.662;10.162;2023-07-30T08:29:29;1.98;;;1.48;;
28587;SDS011;15787;49.662;10.162;2023-07-30T08:32:02;2.88;;;1.60;;
28587;SDS011;15787;49.662;10.162;2023-07-30T08:34:36;8.05;;;1.95;;
28587;SDS011;15787;49.662;10.162;2023-07-30T08:37:08;1.90;;;1.52;;
28587;SDS011;15787;49.662;10.162;2023-07-30T08:39:41;2.90;;;1.58;;
28587;SDS011;15787;49.662;10.162;2023-07-30T08:42:14;2.60;;;1.58;;
28587;SDS011;15787;49.662;10.162;2023-07-30T08:44:49;1.80;;;1.27;;
28587;SDS011;15787;49.662;10.162;2023-07-30T08:47:22;3.13;;;1.50;;
28587;SDS011;15787;49.662;10.162;2023-07-30T08:49:54;4.65;;;1.33;;
28587;SDS011;15787;49.662;10.162;2023-07-30T08:52:29;3.22;;;1.13;;
28587;SDS011;15787;49.662;10.162;2023-07-30T08:55:02;1.88;;;0.95;;
28587;SDS011;15787;49.662;10.162;2023-07-30T08:57:36;1.60;;;0.88;;
28587;SDS011;15787;49.662;10.162;2023-07-30T09:00:15;2.70;;;1.17;;
28587;SDS011;15787;49.662;10.162;2023-07-30T09:02:50;1.23;;;0.80;;
28587;SDS011;15787;49.662;10.162;2023-07-30T09:05:25;1.27;;;0.70;;
28587;SDS011;15787;49.662;10.162;2023-07-30T09:08:00;1.45;;;1.00;;
28587;SDS011;15787;49.662;10.162;2023-07-30T09:10:33;3.75;;;0.80;;
28587;SDS011;15787;49.662;10.162;2023-07-30T09:13:06;1.60;;;0.80;;
28587;SDS011;15787;49.662;10.162;2023-07-30T09:15:41;2.38;;;0.90;;
28587;SDS011;15787;49.662;10.162;2023-07-30T09:18:16;1.75;;;0.93;;
28587;SDS011;15787;49.662;10.162;2023-07-30T09:20:50;1.45;;;0.75;;
28587;SDS011;15787;49.662;10.162;2023-07-30T09:23:22;3.13;;;0.88;;
28587;SDS011;15787;49.662;10.162;2023-07-30T09:25:57;2.55;;;1.10;;
28587;SDS011;15787;49.662;10.162;2023-07-30T09:28:30;1.70;;;0.80;;
28587;SDS011;15787;49.662;10.162;2023-07-30T09:31:06;1.38;;;0.80;;
28587;SDS011;15787;49.662;10.162;2023-07-30T09:33:53;2.70;;;1.20;;
28587;SDS011;15787;49.662;10.162;2023-07-30T09:36:28;2.22;;;0.90;;
28587;SDS011;15787;49.662;10.162;2023-07-30T09:39:01;3.85;;;1.00;;
28587;SDS011;15787;49.662;10.162;2023-07-30T09:41:35;1.77;;;1.10;;
28587;SDS011;15787;49.662;10.162;2023-07-30T09:44:08;4.05;;;1.90;;
28587;SDS011;15787;49.662;10.162;2023-07-30T09:46:44;4.55;;;1.23;;
28587;SDS011;15787;49.662;10.162;2023-07-30T09:49:18;2.10;;;1.25;;
28587;SDS011;15787;49.662;10.162;2023-07-30T09:51:51;2.08;;;1.10;;
28587;SDS011;15787;49.662;10.162;2023-07-30T09:54:24;2.08;;;1.30;;
28587;SDS011;15787;49.662;10.162;2023-07-30T09:56:58;2.00;;;1.10;;
28587;SDS011;15787;49.662;10.162;2023-07-30T09:59:31;1.25;;;0.93;;
28587;SDS011;15787;49.662;10.162;2023-07-30T10:02:06;2.40;;;1.00;;
28587;SDS011;15787;49.662;10.162;2023-07-30T10:04:42;1.83;;;1.00;;
28587;SDS011;15787;49.662;10.162;2023-07-30T10:09:57;1.60;;;1.20;;
28587;SDS011;15787;49.662;10.162;2023-07-30T10:12:32;1.63;;;0.80;;
28587;SDS011;15787;49.662;10.162;2023-07-30T10:15:08;2.78;;;0.90;;
28587;SDS011;15787;49.662;10.162;2023-07-30T10:17:42;1.27;;;0.73;;
28587;SDS011;15787;49.662;10.162;2023-07-30T10:20:23;2.28;;;0.73;;
28587;SDS011;15787;49.662;10.162;2023-07-30T10:22:58;1.48;;;0.80;;
28587;SDS011;15787;49.662;10.162;2023-07-30T10:25:41;1.98;;;1.15;;
28587;SDS011;15787;49.662;10.162;2023-07-30T10:28:31;2.13;;;0.90;;
28587;SDS011;15787;49.662;10.162;2023-07-30T10:31:05;1.90;;;0.93;;
28587;SDS011;15787;49.662;10.162;2023-07-30T10:33:52;2.15;;;0.98;;
28587;SDS011;15787;49.662;10.162;2023-07-30T10:36:30;3.53;;;1.10;;
28587;SDS011;15787;49.662;10.162;2023-07-30T10:39:10;1.40;;;1.05;;
28587;SDS011;15787;49.662;10.162;2023-07-30T10:41:44;1.35;;;1.00;;
28587;SDS011;15787;49.662;10.162;2023-07-30T10:44:27;2.63;;;1.48;;
28587;SDS011;15787;49.662;10.162;2023-07-30T10:47:01;2.97;;;1.15;;
28587;SDS011;15787;49.662;10.162;2023-07-30T10:49:37;3.85;;;1.30;;
28587;SDS011;15787;49.662;10.162;2023-07-30T10:52:11;4.65;;;1.48;;
28587;SDS011;15787;49.662;10.162;2023-07-30T10:54:44;2.63;;;1.52;;
28587;SDS011;15787;49.662;10.162;2023-07-30T10:57:17;2.35;;;1.52;;
28587;SDS011;15787;49.662;10.162;2023-07-30T10:59:50;2.10;;;1.30;;
28587;SDS011;15787;49.662;10.162;2023-07-30T11:02:27;4.63;;;1.35;;
28587;SDS011;15787;49.662;10.162;2023-07-30T11:05:12;3.97;;;1.33;;
28587;SDS011;15787;49.662;10.162;2023-07-30T11:07:49;2.70;;;1.23;;
28587;SDS011;15787;49.662;10.162;2023-07-30T11:10:22;2.83;;;1.38;;
28587;SDS011;15787;49.662;10.162;2023-07-30T11:12:55;2.25;;;1.52;;
28587;SDS011;15787;49.662;10.162;2023-07-30T11:15:30;3.20;;;1.30;;
28587;SDS011;15787;49.662;10.162;2023-07-30T11:18:02;4.03;;;1.55;;
28587;SDS011;15787;49.662;10.162;2023-07-30T11:20:37;5.70;;;1.65;;
28587;SDS011;15787;49.662;10.162;2023-07-30T11:23:19;3.83;;;1.30;;
28587;SDS011;15787;49.662;10.162;2023-07-30T11:25:53;2.00;;;1.08;;
28587;SDS011;15787;49.662;10.162;2023-07-30T11:28:29;1.88;;;1.10;;
28587;SDS011;15787;49.662;10.162;2023-07-30T11:31:07;6.85;;;1.40;;
28587;SDS011;15787;49.662;10.162;2023-07-30T11:33:43;2.20;;;1.40;;
28587;SDS011;15787;49.662;10.162;2023-07-30T11:36:19;2.70;;;1.40;;
28587;SDS011;15787;49.662;10.162;2023-07-30T11:38:54;2.70;;;1.30;;
28587;SDS011;15787;49.662;10.162;2023-07-30T11:41:27;3.65;;;1.42;;
28587;SDS011;15787;49.662;10.162;2023-07-30T11:44:01;2.95;;;1.48;;
28587;SDS011;15787;49.662;10.162;2023-07-30T11:46:34;4.32;;;1.77;;
28587;SDS011;15787;49.662;10.162;2023-07-30T11:49:11;4.28;;;1.33;;
28587;SDS011;15787;49.662;10.162;2023-07-30T11:51:46;2.22;;;1.45;;
28587;SDS011;15787;49.662;10.162;2023-07-30T11:54:20;2.65;;;1.52;;
28587;SDS011;15787;49.662;10.162;2023-07-30T11:56:54;9.13;;;1.92;;
28587;SDS011;15787;49.662;10.162;2023-07-30T11:59:27;2.58;;;1.50;;
28587;SDS011;15787;49.662;10.162;2023-07-30T12:02:03;2.92;;;1.55;;
28587;SDS011;15787;49.662;10.162;2023-07-30T12:04:42;5.18;;;1.77;;
28587;SDS011;15787;49.662;10.162;2023-07-30T12:07:24;2.63;;;1.63;;
28587;SDS011;15787;49.662;10.162;2023-07-30T12:10:05;3.85;;;1.77;;
28587;SDS011;15787;49.662;10.162;2023-07-30T12:12:43;2.67;;;1.58;;
28587;SDS011;15787;49.662;10.162;2023-07-30T12:15:16;1.88;;;1.10;;
28587;SDS011;15787;49.662;10.162;2023-07-30T12:17:49;7.13;;;1.13;;
28587;SDS011;15787;49.662;10.162;2023-07-30T12:20:26;1.95;;;1.20;;
28587;SDS011;15787;49.662;10.162;2023-07-30T12:23:01;5.00;;;0.93;;
28587;SDS011;15787;49.662;10.162;2023-07-30T12:25:34;6.18;;;1.05;;
28587;SDS011;15787;49.662;10.162;2023-07-30T12:28:07;2.35;;;1.10;;
28587;SDS011;15787;49.662;10.162;2023-07-30T12:30:40;2.05;;;1.08;;
28587;SDS011;15787;49.662;10.162;2023-07-30T12:33:13;4.72;;;1.13;;
28587;SDS011;15787;49.662;10.162;2023-07-30T12:35:46;3.20;;;1.10;;
28587;SDS011;15787;49.662;10.162;2023-07-30T12:38:22;3.22;;;1.08;;
28587;SDS011;15787;49.662;10.162;2023-07-30T12:40:55;3.33;;;1.20;;
28587;SDS011;15787;49.662;10.162;2023-07-30T12:43:29;4.32;;;1.30;;
28587;SDS011;15787;49.662;10.162;2023-07-30T12:46:02;1.80;;;0.90;;
28587;SDS011;15787;49.662;10.162;2023-07-30T12:48:34;2.53;;;1.08;;
28587;SDS011;15787;49.662;10.162;2023-07-30T12:51:07;2.95;;;0.90;;
28587;SDS011;15787;49.662;10.162;2023-07-30T12:53:41;2.08;;;0.88;;
28587;SDS011;15787;49.662;10.162;2023-07-30T12:56:14;1.63;;;0.80;;
28587;SDS011;15787;49.662;10.162;2023-07-30T12:58:48;2.03;;;0.60;;
28587;SDS011;15787;49.662;10.162;2023-07-30T13:01:20;2.75;;;1.38;;
28587;SDS011;15787;49.662;10.162;2023-07-30T13:03:55;3.58;;;0.80;;
28587;SDS011;15787;49.662;10.162;2023-07-30T13:06:27;1.50;;;0.47;;
28587;SDS011;15787;49.662;10.162;2023-07-30T13:09:02;2.58;;;0.70;;
28587;SDS011;15787;49.662;10.162;2023-07-30T13:11:35;1.48;;;0.52;;
28587;SDS011;15787;49.662;10.162;2023-07-30T13:14:09;2.17;;;0.57;;
28587;SDS011;15787;49.662;10.162;2023-07-30T13:16:41;2.50;;;0.80;;
28587;SDS011;15787;49.662;10.162;2023-07-30T13:19:14;2.67;;;0.68;;
28587;SDS011;15787;49.662;10.162;2023-07-30T13:21:47;2.40;;;0.63;;
28587;SDS011;15787;49.662;10.162;2023-07-30T13:24:22;2.00;;;0.55;;
28587;SDS011;15787;49.662;10.162;2023-07-30T13:26:55;1.77;;;0.75;;
28587;SDS011;15787;49.662;10.162;2023-07-30T13:29:28;2.53;;;0.52;;
28587;SDS011;15787;49.662;10.162;2023-07-30T13:32:01;5.18;;;1.33;;
28587;SDS011;15787;49.662;10.162;2023-07-30T13:34:33;1.52;;;0.60;;
28587;SDS011;15787;49.662;10.162;2023-07-30T13:37:06;2.92;;;0.68;;
28587;SDS011;15787;49.662;10.162;2023-07-30T13:39:41;2.33;;;0.80;;
28587;SDS011;15787;49.662;10.162;2023-07-30T13:42:13;2.85;;;0.80;;
28587;SDS011;15787;49.662;10.162;2023-07-30T13:44:46;4.03;;;1.08;;
28587;SDS011;15787;49.662;10.162;2023-07-30T13:47:19;5.30;;;1.05;;
28587;SDS011;15787;49.662;10.162;2023-07-30T13:49:52;4.78;;;1.00;;
28587;SDS011;15787;49.662;10.162;2023-07-30T13:52:25;4.28;;;1.08;;
28587;SDS011;15787;49.662;10.162;2023-07-30T13:54:59;1.85;;;0.75;;
28587;SDS011;15787;49.662;10.162;2023-07-30T13:57:32;2.28;;;0.80;;
28587;SDS011;15787;49.662;10.162;2023-07-30T14:00:07;4.28;;;0.98;;
28587;SDS011;15787;49.662;10.162;2023-07-30T14:02:42;5.50;;;0.90;;
28587;SDS011;15787;49.662;10.162;2023-07-30T14:05:15;2.75;;;0.50;;
28587;SDS011;15787;49.662;10.162;2023-07-30T14:07:48;1.98;;;0.70;;
28587;SDS011;15787;49.662;10.162;2023-07-30T14:10:24;4.10;;;0.77;;
28587;SDS011;15787;49.662;10.162;2023-07-30T14:12:58;2.15;;;0.77;;
28587;SDS011;15787;49.662;10.162;2023-07-30T14:15:30;6.55;;;1.33;;
28587;SDS011;15787;49.662;10.162;2023-07-30T14:18:04;4.20;;;1.05;;
28587;SDS011;15787;49.662;10.162;2023-07-30T14:20:37;8.40;;;0.98;;
28587;SDS011;15787;49.662;10.162;2023-07-30T14:23:10;5.07;;;1.00;;
28587;SDS011;15787;49.662;10.162;2023-07-30T14:25:45;3.25;;;0.80;;
28587;SDS011;15787;49.662;10.162;2023-07-30T14:28:18;3.47;;;1.58;;
28587;SDS011;15787;49.662;10.162;2023-07-30T14:30:51;4.55;;;1.00;;
28587;SDS011;15787;49.662;10.162;2023-07-30T14:33:24;7.60;;;1.33;;
28587;SDS011;15787;49.662;10.162;2023-07-30T14:35:57;4.43;;;1.35;;
28587;SDS011;15787;49.662;10.162;2023-07-30T14:38:30;5.40;;;1.20;;
28587;SDS011;15787;49.662;10.162;2023-07-30T14:41:06;3.70;;;1.50;;
28587;SDS011;15787;49.662;10.162;2023-07-30T14:43:40;3.83;;;0.93;;
28587;SDS011;15787;49.662;10.162;2023-07-30T14:46:13;6.40;;;1.33;;
28587;SDS011;15787;49.662;10.162;2023-07-30T14:48:47;4.80;;;1.02;;
28587;SDS011;15787;49.662;10.162;2023-07-30T14:51:20;5.72;;;1.15;;
28587;SDS011;15787;49.662;10.162;2023-07-30T14:53:53;3.20;;;1.00;;
28587;SDS011;15787;49.662;10.162;2023-07-30T14:56:27;5.28;;;1.17;;
28587;SDS011;15787;49.662;10.162;2023-07-30T14:59:01;3.00;;;1.00;;
28587;SDS011;15787;49.662;10.162;2023-07-30T15:01:34;2.95;;;0.95;;
28587;SDS011;15787;49.662;10.162;2023-07-30T15:04:08;2.80;;;1.17;;
28587;SDS011;15787;49.662;10.162;2023-07-30T15:06:41;5.18;;;1.13;;
28587;SDS011;15787;49.662;10.162;2023-07-30T15:09:14;7.85;;;1.17;;
28587;SDS011;15787;49.662;10.162;2023-07-30T15:11:48;11.90;;;2.53;;
28587;SDS011;15787;49.662;10.162;2023-07-30T15:14:21;3.22;;;0.90;;
28587;SDS011;15787;49.662;10.162;2023-07-30T15:16:54;3.55;;;0.88;;
28587;SDS011;15787;49.662;10.162;2023-07-30T15:19:28;4.53;;;1.08;;
28587;SDS011;15787;49.662;10.162;2023-07-30T15:22:00;3.55;;;1.38;;
28587;SDS011;15787;49.662;10.162;2023-07-30T15:24:34;2.92;;;1.10;;
28587;SDS011;15787;49.662;10.162;2023-07-30T15:27:11;5.43;;;0.95;;
28587;SDS011;15787;49.662;10.162;2023-07-30T15:29:44;6.00;;;1.10;;
28587;SDS011;15787;49.662;10.162;2023-07-30T15:32:17;2.63;;;1.13;;
28587;SDS011;15787;49.662;10.162;2023-07-30T15:34:50;3.05;;;1.08;;
28587;SDS011;15787;49.662;10.162;2023-07-30T15:37:23;8.02;;;1.33;;
28587;SDS011;15787;49.662;10.162;2023-07-30T15:39:56;6.07;;;1.30;;
28587;SDS011;15787;49.662;10.162;2023-07-30T15:42:30;3.53;;;1.10;;
28587;SDS011;15787;49.662;10.162;2023-07-30T15:45:03;4.25;;;0.90;;